sensor_id;sensor_type;location;lat;lon;timestamp;P1;durP1;ratioP1;P2;durP2;ratioP2
24873;SDS011;12945;42.648;23.370;2022-09-25T00:00:22;9.18;;;6.00;;
24873;SDS011;12945;42.648;23.370;2022-09-25T00:02:47;12.23;;;6.30;;
24873;SDS011;12945;42.648;23.370;2022-09-25T00:05:12;10.18;;;6.60;;
24873;SDS011;12945;42.648;23.370;2022-09-25T00:07:38;9.65;;;6.38;;
24873;SDS011;12945;42.648;23.370;2022-09-25T00:10:03;9.55;;;6.53;;
24873;SDS011;12945;42.648;23.370;2022-09-25T00:12:28;9.68;;;6.60;;
24873;SDS011;12945;42.648;23.370;2022-09-25T00:14:54;13.80;;;7.10;;
24873;SDS011;12945;42.648;23.370;2022-09-25T00:17:19;11.77;;;6.85;;
24873;SDS011;12945;42.648;23.370;2022-09-25T00:19:45;11.45;;;6.97;;
24873;SDS011;12945;42.648;23.370;2022-09-25T00:22:19;11.48;;;7.35;;
24873;SDS011;12945;42.648;23.370;2022-09-25T00:24:45;9.93;;;6.68;;
24873;SDS011;12945;42.648;23.370;2022-09-25T00:27:11;9.82;;;6.00;;
24873;SDS011;12945;42.648;23.370;2022-09-25T00:29:37;10.82;;;5.95;;
24873;SDS011;12945;42.648;23.370;2022-09-25T00:32:03;13.00;;;7.07;;
24873;SDS011;12945;42.648;23.370;2022-09-25T00:34:28;7.43;;;5.97;;
24873;SDS011;12945;42.648;23.370;2022-09-25T00:36:53;11.23;;;6.38;;
24873;SDS011;12945;42.648;23.370;2022-09-25T00:39:18;8.35;;;5.75;;
24873;SDS011;12945;42.648;23.370;2022-09-25T00:41:44;9.13;;;5.88;;
24873;SDS011;12945;42.648;23.370;2022-09-25T00:46:53;10.90;;;6.72;;
24873;SDS011;12945;42.648;23.370;2022-09-25T00:49:22;14.68;;;7.30;;
24873;SDS011;12945;42.648;23.370;2022-09-25T00:51:53;12.27;;;7.10;;
24873;SDS011;12945;42.648;23.370;2022-09-25T00:54:23;8.90;;;6.15;;
24873;SDS011;12945;42.648;23.370;2022-09-25T00:56:50;9.45;;;5.85;;
24873;SDS011;12945;42.648;23.370;2022-09-25T00:59:17;12.43;;;5.82;;
24873;SDS011;12945;42.648;23.370;2022-09-25T01:01:44;13.30;;;6.88;;
24873;SDS011;12945;42.648;23.370;2022-09-25T01:04:09;10.88;;;6.60;;
24873;SDS011;12945;42.648;23.370;2022-09-25T01:06:36;9.82;;;6.65;;
24873;SDS011;12945;42.648;23.370;2022-09-25T01:09:02;12.50;;;6.82;;
24873;SDS011;12945;42.648;23.370;2022-09-25T01:11:27;11.43;;;6.60;;
24873;SDS011;12945;42.648;23.370;2022-09-25T01:13:55;11.27;;;6.82;;
24873;SDS011;12945;42.648;23.370;2022-09-25T01:16:25;13.23;;;6.70;;
24873;SDS011;12945;42.648;23.370;2022-09-25T01:34:07;7.53;;;5.20;;
24873;SDS011;12945;42.648;23.370;2022-09-25T01:36:46;10.32;;;5.93;;
24873;SDS011;12945;42.648;23.370;2022-09-25T01:39:18;10.20;;;5.90;;
24873;SDS011;12945;42.648;23.370;2022-09-25T01:41:49;8.13;;;5.90;;
24873;SDS011;12945;42.648;23.370;2022-09-25T01:44:26;7.13;;;5.32;;
24873;SDS011;12945;42.648;23.370;2022-09-25T01:46:53;7.90;;;5.65;;
24873;SDS011;12945;42.648;23.370;2022-09-25T01:49:28;9.15;;;5.50;;
24873;SDS011;12945;42.648;23.370;2022-09-25T01:51:54;8.73;;;5.25;;
24873;SDS011;12945;42.648;23.370;2022-09-25T01:54:31;6.80;;;5.28;;
24873;SDS011;12945;42.648;23.370;2022-09-25T01:56:58;9.45;;;6.05;;
24873;SDS011;12945;42.648;23.370;2022-09-25T02:02:11;6.82;;;5.22;;
24873;SDS011;12945;42.648;23.370;2022-09-25T02:04:38;10.48;;;5.57;;
24873;SDS011;12945;42.648;23.370;2022-09-25T02:07:06;8.63;;;5.75;;
24873;SDS011;12945;42.648;23.370;2022-09-25T02:09:33;9.02;;;5.90;;
24873;SDS011;12945;42.648;23.370;2022-09-25T02:12:03;7.38;;;5.80;;
24873;SDS011;12945;42.648;23.370;2022-09-25T02:14:41;9.30;;;5.47;;
24873;SDS011;12945;42.648;23.370;2022-09-25T02:17:11;10.07;;;5.18;;
24873;SDS011;12945;42.648;23.370;2022-09-25T02:19:57;7.18;;;5.60;;
24873;SDS011;12945;42.648;23.370;2022-09-25T02:22:41;7.28;;;5.45;;
24873;SDS011;12945;42.648;23.370;2022-09-25T02:25:11;8.65;;;5.80;;
24873;SDS011;12945;42.648;23.370;2022-09-25T02:27:39;14.30;;;6.07;;
24873;SDS011;12945;42.648;23.370;2022-09-25T02:30:04;11.00;;;5.75;;
24873;SDS011;12945;42.648;23.370;2022-09-25T02:32:30;8.32;;;5.78;;
24873;SDS011;12945;42.648;23.370;2022-09-25T02:34:56;7.93;;;5.55;;
24873;SDS011;12945;42.648;23.370;2022-09-25T02:37:22;10.35;;;6.15;;
24873;SDS011;12945;42.648;23.370;2022-09-25T02:39:48;7.97;;;5.15;;
24873;SDS011;12945;42.648;23.370;2022-09-25T02:49:49;12.65;;;6.63;;
24873;SDS011;12945;42.648;23.370;2022-09-25T02:52:25;9.32;;;5.85;;
24873;SDS011;12945;42.648;23.370;2022-09-25T02:54:52;10.45;;;5.97;;
24873;SDS011;12945;42.648;23.370;2022-09-25T02:59:46;8.13;;;5.97;;
24873;SDS011;12945;42.648;23.370;2022-09-25T03:02:13;8.60;;;6.03;;
24873;SDS011;12945;42.648;23.370;2022-09-25T03:04:38;12.52;;;6.18;;
24873;SDS011;12945;42.648;23.370;2022-09-25T03:07:04;8.10;;;5.88;;
24873;SDS011;12945;42.648;23.370;2022-09-25T03:09:31;8.63;;;5.65;;
24873;SDS011;12945;42.648;23.370;2022-09-25T03:12:00;12.80;;;6.28;;
24873;SDS011;12945;42.648;23.370;2022-09-25T03:14:25;12.75;;;6.75;;
24873;SDS011;12945;42.648;23.370;2022-09-25T03:16:51;7.32;;;5.45;;
24873;SDS011;12945;42.648;23.370;2022-09-25T03:19:20;9.25;;;5.50;;
24873;SDS011;12945;42.648;23.370;2022-09-25T03:21:45;8.13;;;5.93;;
24873;SDS011;12945;42.648;23.370;2022-09-25T03:24:11;10.10;;;5.72;;
24873;SDS011;12945;42.648;23.370;2022-09-25T03:26:36;9.48;;;5.60;;
24873;SDS011;12945;42.648;23.370;2022-09-25T03:29:02;7.70;;;5.40;;
24873;SDS011;12945;42.648;23.370;2022-09-25T03:31:28;10.40;;;5.00;;
24873;SDS011;12945;42.648;23.370;2022-09-25T03:33:54;7.95;;;5.10;;
24873;SDS011;12945;42.648;23.370;2022-09-25T03:36:20;7.60;;;4.85;;
24873;SDS011;12945;42.648;23.370;2022-09-25T03:38:46;7.40;;;5.05;;
24873;SDS011;12945;42.648;23.370;2022-09-25T03:41:12;9.25;;;5.20;;
24873;SDS011;12945;42.648;23.370;2022-09-25T03:43:39;10.35;;;5.40;;
24873;SDS011;12945;42.648;23.370;2022-09-25T03:46:05;8.50;;;5.25;;
24873;SDS011;12945;42.648;23.370;2022-09-25T03:48:31;9.63;;;5.05;;
24873;SDS011;12945;42.648;23.370;2022-09-25T03:50:56;8.95;;;5.38;;
24873;SDS011;12945;42.648;23.370;2022-09-25T03:53:22;7.35;;;5.55;;
24873;SDS011;12945;42.648;23.370;2022-09-25T03:55:49;7.55;;;5.25;;
24873;SDS011;12945;42.648;23.370;2022-09-25T03:58:15;9.02;;;5.25;;
24873;SDS011;12945;42.648;23.370;2022-09-25T04:00:40;10.43;;;5.28;;
24873;SDS011;12945;42.648;23.370;2022-09-25T04:03:06;9.73;;;5.72;;
24873;SDS011;12945;42.648;23.370;2022-09-25T04:05:31;11.95;;;5.65;;
24873;SDS011;12945;42.648;23.370;2022-09-25T04:07:56;9.27;;;5.80;;
24873;SDS011;12945;42.648;23.370;2022-09-25T04:10:22;9.30;;;6.13;;
24873;SDS011;12945;42.648;23.370;2022-09-25T04:12:47;10.80;;;6.95;;
24873;SDS011;12945;42.648;23.370;2022-09-25T04:15:19;13.48;;;7.95;;
24873;SDS011;12945;42.648;23.370;2022-09-25T04:17:47;22.05;;;9.43;;
24873;SDS011;12945;42.648;23.370;2022-09-25T04:20:12;14.93;;;10.10;;
24873;SDS011;12945;42.648;23.370;2022-09-25T04:22:37;10.15;;;7.25;;
24873;SDS011;12945;42.648;23.370;2022-09-25T04:25:03;14.50;;;6.22;;
24873;SDS011;12945;42.648;23.370;2022-09-25T04:27:28;11.75;;;6.70;;
24873;SDS011;12945;42.648;23.370;2022-09-25T04:29:54;11.57;;;6.45;;
24873;SDS011;12945;42.648;23.370;2022-09-25T04:32:19;8.55;;;5.90;;
24873;SDS011;12945;42.648;23.370;2022-09-25T04:35:03;9.43;;;5.88;;
24873;SDS011;12945;42.648;23.370;2022-09-25T04:37:28;10.43;;;5.72;;
24873;SDS011;12945;42.648;23.370;2022-09-25T04:39:54;8.52;;;6.15;;
24873;SDS011;12945;42.648;23.370;2022-09-25T04:42:20;8.70;;;5.57;;
24873;SDS011;12945;42.648;23.370;2022-09-25T04:44:51;7.60;;;5.50;;
24873;SDS011;12945;42.648;23.370;2022-09-25T04:47:17;9.63;;;5.97;;
24873;SDS011;12945;42.648;23.370;2022-09-25T04:49:43;8.00;;;5.43;;
24873;SDS011;12945;42.648;23.370;2022-09-25T04:52:10;8.07;;;5.80;;
24873;SDS011;12945;42.648;23.370;2022-09-25T04:54:36;6.68;;;4.97;;
24873;SDS011;12945;42.648;23.370;2022-09-25T04:57:01;7.38;;;5.55;;
24873;SDS011;12945;42.648;23.370;2022-09-25T04:59:26;8.02;;;5.68;;
24873;SDS011;12945;42.648;23.370;2022-09-25T05:01:52;8.18;;;5.32;;
24873;SDS011;12945;42.648;23.370;2022-09-25T05:04:18;8.65;;;5.53;;
24873;SDS011;12945;42.648;23.370;2022-09-25T05:06:43;6.60;;;5.05;;
24873;SDS011;12945;42.648;23.370;2022-09-25T05:09:08;10.57;;;5.95;;
24873;SDS011;12945;42.648;23.370;2022-09-25T05:11:34;11.85;;;5.90;;
24873;SDS011;12945;42.648;23.370;2022-09-25T05:13:59;7.72;;;5.40;;
24873;SDS011;12945;42.648;23.370;2022-09-25T05:16:25;8.32;;;6.45;;
24873;SDS011;12945;42.648;23.370;2022-09-25T05:18:52;12.18;;;7.40;;
24873;SDS011;12945;42.648;23.370;2022-09-25T05:21:18;10.68;;;7.10;;
24873;SDS011;12945;42.648;23.370;2022-09-25T05:23:43;10.02;;;6.30;;
24873;SDS011;12945;42.648;23.370;2022-09-25T05:26:08;9.10;;;6.47;;
24873;SDS011;12945;42.648;23.370;2022-09-25T05:28:34;12.38;;;6.80;;
24873;SDS011;12945;42.648;23.370;2022-09-25T05:31:00;10.75;;;6.72;;
24873;SDS011;12945;42.648;23.370;2022-09-25T05:33:27;16.55;;;7.10;;
24873;SDS011;12945;42.648;23.370;2022-09-25T05:35:53;9.90;;;6.32;;
24873;SDS011;12945;42.648;23.370;2022-09-25T05:38:18;10.38;;;6.05;;
24873;SDS011;12945;42.648;23.370;2022-09-25T05:40:43;7.88;;;5.70;;
24873;SDS011;12945;42.648;23.370;2022-09-25T05:43:08;7.97;;;5.32;;
24873;SDS011;12945;42.648;23.370;2022-09-25T05:45:34;8.82;;;5.13;;
24873;SDS011;12945;42.648;23.370;2022-09-25T05:48:05;8.63;;;5.82;;
24873;SDS011;12945;42.648;23.370;2022-09-25T05:50:30;8.30;;;5.18;;
24873;SDS011;12945;42.648;23.370;2022-09-25T05:53:00;12.15;;;5.80;;
24873;SDS011;12945;42.648;23.370;2022-09-25T05:55:25;6.72;;;5.18;;
24873;SDS011;12945;42.648;23.370;2022-09-25T05:57:51;8.73;;;5.18;;
24873;SDS011;12945;42.648;23.370;2022-09-25T06:00:16;8.27;;;5.60;;
24873;SDS011;12945;42.648;23.370;2022-09-25T06:02:42;9.05;;;5.60;;
24873;SDS011;12945;42.648;23.370;2022-09-25T06:05:08;9.45;;;5.80;;
24873;SDS011;12945;42.648;23.370;2022-09-25T06:07:34;11.52;;;6.75;;
24873;SDS011;12945;42.648;23.370;2022-09-25T06:09:59;13.05;;;8.05;;
24873;SDS011;12945;42.648;23.370;2022-09-25T06:12:27;12.75;;;8.20;;
24873;SDS011;12945;42.648;23.370;2022-09-25T06:14:52;13.02;;;8.55;;
24873;SDS011;12945;42.648;23.370;2022-09-25T06:17:18;16.15;;;8.02;;
24873;SDS011;12945;42.648;23.370;2022-09-25T06:19:44;12.05;;;8.20;;
24873;SDS011;12945;42.648;23.370;2022-09-25T06:22:09;17.75;;;8.07;;
24873;SDS011;12945;42.648;23.370;2022-09-25T06:24:34;13.88;;;9.35;;
24873;SDS011;12945;42.648;23.370;2022-09-25T06:26:59;14.63;;;10.02;;
24873;SDS011;12945;42.648;23.370;2022-09-25T06:29:24;14.73;;;9.95;;
24873;SDS011;12945;42.648;23.370;2022-09-25T06:31:50;15.82;;;9.60;;
24873;SDS011;12945;42.648;23.370;2022-09-25T06:34:16;16.83;;;10.18;;
24873;SDS011;12945;42.648;23.370;2022-09-25T06:36:41;15.40;;;9.85;;
24873;SDS011;12945;42.648;23.370;2022-09-25T06:39:06;18.40;;;10.40;;
24873;SDS011;12945;42.648;23.370;2022-09-25T06:41:32;16.15;;;10.30;;
24873;SDS011;12945;42.648;23.370;2022-09-25T06:43:57;13.75;;;9.93;;
24873;SDS011;12945;42.648;23.370;2022-09-25T06:46:23;13.88;;;9.85;;
24873;SDS011;12945;42.648;23.370;2022-09-25T06:48:50;14.73;;;10.80;;
24873;SDS011;12945;42.648;23.370;2022-09-25T06:51:15;17.90;;;11.10;;
24873;SDS011;12945;42.648;23.370;2022-09-25T06:53:42;16.00;;;10.82;;
24873;SDS011;12945;42.648;23.370;2022-09-25T06:56:07;12.73;;;9.20;;
24873;SDS011;12945;42.648;23.370;2022-09-25T06:58:33;13.00;;;9.20;;
24873;SDS011;12945;42.648;23.370;2022-09-25T07:01:00;11.95;;;8.30;;
24873;SDS011;12945;42.648;23.370;2022-09-25T07:03:25;13.80;;;8.88;;
24873;SDS011;12945;42.648;23.370;2022-09-25T07:06:10;11.27;;;8.27;;
24873;SDS011;12945;42.648;23.370;2022-09-25T07:08:36;12.43;;;7.47;;
24873;SDS011;12945;42.648;23.370;2022-09-25T07:11:02;10.90;;;7.47;;
24873;SDS011;12945;42.648;23.370;2022-09-25T07:13:28;11.90;;;7.72;;
24873;SDS011;12945;42.648;23.370;2022-09-25T07:15:57;11.82;;;8.13;;
24873;SDS011;12945;42.648;23.370;2022-09-25T07:18:23;12.10;;;7.45;;
24873;SDS011;12945;42.648;23.370;2022-09-25T07:20:49;12.05;;;7.30;;
24873;SDS011;12945;42.648;23.370;2022-09-25T07:23:15;14.27;;;8.18;;
24873;SDS011;12945;42.648;23.370;2022-09-25T07:25:41;10.07;;;7.05;;
24873;SDS011;12945;42.648;23.370;2022-09-25T07:28:07;13.95;;;7.63;;
24873;SDS011;12945;42.648;23.370;2022-09-25T07:30:32;14.32;;;8.45;;
24873;SDS011;12945;42.648;23.370;2022-09-25T07:32:58;11.85;;;8.23;;
24873;SDS011;12945;42.648;23.370;2022-09-25T07:35:23;15.57;;;8.65;;
24873;SDS011;12945;42.648;23.370;2022-09-25T07:37:48;13.77;;;9.18;;
24873;SDS011;12945;42.648;23.370;2022-09-25T07:40:13;13.40;;;9.25;;
24873;SDS011;12945;42.648;23.370;2022-09-25T07:42:39;20.33;;;11.40;;
24873;SDS011;12945;42.648;23.370;2022-09-25T07:45:05;19.98;;;10.63;;
24873;SDS011;12945;42.648;23.370;2022-09-25T07:47:30;16.45;;;10.88;;
24873;SDS011;12945;42.648;23.370;2022-09-25T07:49:55;21.73;;;11.10;;
24873;SDS011;12945;42.648;23.370;2022-09-25T07:52:20;13.20;;;9.85;;
24873;SDS011;12945;42.648;23.370;2022-09-25T07:54:46;13.75;;;9.15;;
24873;SDS011;12945;42.648;23.370;2022-09-25T07:57:12;13.48;;;8.85;;
24873;SDS011;12945;42.648;23.370;2022-09-25T07:59:37;14.93;;;9.70;;
24873;SDS011;12945;42.648;23.370;2022-09-25T08:02:02;15.10;;;9.43;;
24873;SDS011;12945;42.648;23.370;2022-09-25T08:04:29;11.32;;;8.48;;
24873;SDS011;12945;42.648;23.370;2022-09-25T08:06:54;15.27;;;8.77;;
24873;SDS011;12945;42.648;23.370;2022-09-25T08:09:21;9.73;;;7.10;;
24873;SDS011;12945;42.648;23.370;2022-09-25T08:11:47;12.88;;;7.22;;
24873;SDS011;12945;42.648;23.370;2022-09-25T08:14:12;11.68;;;7.45;;
24873;SDS011;12945;42.648;23.370;2022-09-25T08:16:38;10.73;;;7.72;;
24873;SDS011;12945;42.648;23.370;2022-09-25T08:19:04;10.93;;;7.90;;
24873;SDS011;12945;42.648;23.370;2022-09-25T08:21:30;13.40;;;8.10;;
24873;SDS011;12945;42.648;23.370;2022-09-25T08:23:55;10.73;;;7.88;;
24873;SDS011;12945;42.648;23.370;2022-09-25T08:26:21;13.73;;;8.73;;
24873;SDS011;12945;42.648;23.370;2022-09-25T08:28:47;15.75;;;9.50;;
24873;SDS011;12945;42.648;23.370;2022-09-25T08:31:12;13.48;;;8.20;;
24873;SDS011;12945;42.648;23.370;2022-09-25T08:33:38;12.95;;;8.80;;
24873;SDS011;12945;42.648;23.370;2022-09-25T08:36:07;13.98;;;8.20;;
24873;SDS011;12945;42.648;23.370;2022-09-25T08:38:33;12.10;;;7.40;;
24873;SDS011;12945;42.648;23.370;2022-09-25T08:40:59;11.60;;;6.80;;
24873;SDS011;12945;42.648;23.370;2022-09-25T08:43:27;9.80;;;6.97;;
24873;SDS011;12945;42.648;23.370;2022-09-25T08:45:54;9.10;;;7.03;;
24873;SDS011;12945;42.648;23.370;2022-09-25T08:48:54;11.07;;;6.70;;
24873;SDS011;12945;42.648;23.370;2022-09-25T08:51:41;8.93;;;6.28;;
24873;SDS011;12945;42.648;23.370;2022-09-25T08:54:07;10.13;;;6.38;;
24873;SDS011;12945;42.648;23.370;2022-09-25T08:56:34;8.40;;;5.53;;
24873;SDS011;12945;42.648;23.370;2022-09-25T09:01:27;6.38;;;5.15;;
24873;SDS011;12945;42.648;23.370;2022-09-25T09:04:11;8.63;;;5.20;;
24873;SDS011;12945;42.648;23.370;2022-09-25T09:06:37;8.23;;;5.43;;
24873;SDS011;12945;42.648;23.370;2022-09-25T09:09:12;7.85;;;5.45;;
24873;SDS011;12945;42.648;23.370;2022-09-25T09:11:40;7.72;;;4.75;;
24873;SDS011;12945;42.648;23.370;2022-09-25T09:14:10;8.55;;;4.97;;
24873;SDS011;12945;42.648;23.370;2022-09-25T09:19:14;9.77;;;4.97;;
24873;SDS011;12945;42.648;23.370;2022-09-25T09:22:03;10.57;;;5.57;;
24873;SDS011;12945;42.648;23.370;2022-09-25T09:24:33;10.68;;;5.88;;
24873;SDS011;12945;42.648;23.370;2022-09-25T09:35:09;8.23;;;5.00;;
24873;SDS011;12945;42.648;23.370;2022-09-25T09:37:29;6.43;;;4.75;;
24873;SDS011;12945;42.648;23.370;2022-09-25T09:42:33;6.38;;;4.28;;
24873;SDS011;12945;42.648;23.370;2022-09-25T09:47:56;6.18;;;4.28;;
24873;SDS011;12945;42.648;23.370;2022-09-25T09:52:50;5.43;;;4.15;;
24873;SDS011;12945;42.648;23.370;2022-09-25T09:57:51;6.78;;;4.00;;
24873;SDS011;12945;42.648;23.370;2022-09-25T10:00:19;6.95;;;3.72;;
24873;SDS011;12945;42.648;23.370;2022-09-25T10:05:25;5.43;;;4.50;;
24873;SDS011;12945;42.648;23.370;2022-09-25T10:07:52;7.30;;;4.40;;
24873;SDS011;12945;42.648;23.370;2022-09-25T10:10:18;5.75;;;4.30;;
24873;SDS011;12945;42.648;23.370;2022-09-25T10:12:53;5.80;;;4.28;;
24873;SDS011;12945;42.648;23.370;2022-09-25T10:17:46;9.98;;;4.50;;
24873;SDS011;12945;42.648;23.370;2022-09-25T10:20:19;8.70;;;4.18;;
24873;SDS011;12945;42.648;23.370;2022-09-25T10:22:45;9.90;;;4.60;;
24873;SDS011;12945;42.648;23.370;2022-09-25T10:25:11;6.95;;;4.35;;
24873;SDS011;12945;42.648;23.370;2022-09-25T10:27:37;5.72;;;4.22;;
24873;SDS011;12945;42.648;23.370;2022-09-25T10:32:55;9.68;;;4.05;;
24873;SDS011;12945;42.648;23.370;2022-09-25T10:35:20;11.63;;;3.75;;
24873;SDS011;12945;42.648;23.370;2022-09-25T10:37:55;6.90;;;3.63;;
24873;SDS011;12945;42.648;23.370;2022-09-25T10:40:31;4.85;;;3.50;;
24873;SDS011;12945;42.648;23.370;2022-09-25T10:45:36;6.88;;;3.50;;
24873;SDS011;12945;42.648;23.370;2022-09-25T10:51:05;9.73;;;3.42;;
24873;SDS011;12945;42.648;23.370;2022-09-25T10:53:30;8.23;;;3.60;;
24873;SDS011;12945;42.648;23.370;2022-09-25T10:56:14;5.90;;;3.53;;
24873;SDS011;12945;42.648;23.370;2022-09-25T11:01:12;6.22;;;3.33;;
24873;SDS011;12945;42.648;23.370;2022-09-25T11:03:59;5.38;;;3.80;;
24873;SDS011;12945;42.648;23.370;2022-09-25T11:06:25;7.68;;;3.70;;
24873;SDS011;12945;42.648;23.370;2022-09-25T11:09:02;7.97;;;3.60;;
24873;SDS011;12945;42.648;23.370;2022-09-25T11:11:27;4.95;;;3.50;;
24873;SDS011;12945;42.648;23.370;2022-09-25T11:13:56;6.18;;;3.55;;
24873;SDS011;12945;42.648;23.370;2022-09-25T11:19:10;4.90;;;3.70;;
24873;SDS011;12945;42.648;23.370;2022-09-25T11:32:06;10.02;;;3.33;;
24873;SDS011;12945;42.648;23.370;2022-09-25T11:37:19;5.60;;;3.22;;
24873;SDS011;12945;42.648;23.370;2022-09-25T11:39:48;4.18;;;2.92;;
24873;SDS011;12945;42.648;23.370;2022-09-25T11:42:39;3.50;;;2.97;;
24873;SDS011;12945;42.648;23.370;2022-09-25T11:45:14;5.05;;;3.40;;
24873;SDS011;12945;42.648;23.370;2022-09-25T11:48:03;6.15;;;3.20;;
24873;SDS011;12945;42.648;23.370;2022-09-25T11:50:35;8.23;;;2.90;;
24873;SDS011;12945;42.648;23.370;2022-09-25T11:53:14;3.63;;;3.00;;
24873;SDS011;12945;42.648;23.370;2022-09-25T11:58:14;4.90;;;3.00;;
24873;SDS011;12945;42.648;23.370;2022-09-25T12:13:37;3.95;;;2.80;;
24873;SDS011;12945;42.648;23.370;2022-09-25T12:16:10;6.38;;;2.47;;
24873;SDS011;12945;42.648;23.370;2022-09-25T12:21:06;8.25;;;2.55;;
24873;SDS011;12945;42.648;23.370;2022-09-25T12:23:53;7.25;;;2.78;;
24873;SDS011;12945;42.648;23.370;2022-09-25T12:32:41;5.18;;;3.15;;
24873;SDS011;12945;42.648;23.370;2022-09-25T12:37:38;3.47;;;2.72;;
24873;SDS011;12945;42.648;23.370;2022-09-25T12:40:15;5.38;;;2.58;;
24873;SDS011;12945;42.648;23.370;2022-09-25T12:50:09;5.55;;;2.45;;
24873;SDS011;12945;42.648;23.370;2022-09-25T12:52:40;5.47;;;2.58;;
24873;SDS011;12945;42.648;23.370;2022-09-25T12:57:35;6.50;;;2.70;;
24873;SDS011;12945;42.648;23.370;2022-09-25T13:00:14;4.57;;;2.45;;
24873;SDS011;12945;42.648;23.370;2022-09-25T13:02:52;3.15;;;2.40;;
24873;SDS011;12945;42.648;23.370;2022-09-25T13:06:06;4.55;;;2.67;;
24873;SDS011;12945;42.648;23.370;2022-09-25T13:13:12;3.07;;;2.13;;
24873;SDS011;12945;42.648;23.370;2022-09-25T13:15:43;3.47;;;2.28;;
24873;SDS011;12945;42.648;23.370;2022-09-25T13:18:12;5.00;;;2.63;;
24873;SDS011;12945;42.648;23.370;2022-09-25T13:20:43;3.00;;;2.13;;
24873;SDS011;12945;42.648;23.370;2022-09-25T13:23:23;4.93;;;2.40;;
24873;SDS011;12945;42.648;23.370;2022-09-25T13:25:53;4.55;;;2.30;;
24873;SDS011;12945;42.648;23.370;2022-09-25T13:28:30;6.13;;;2.55;;
24873;SDS011;12945;42.648;23.370;2022-09-25T13:31:06;4.75;;;2.13;;
24873;SDS011;12945;42.648;23.370;2022-09-25T13:33:37;8.75;;;2.83;;
24873;SDS011;12945;42.648;23.370;2022-09-25T13:36:05;6.68;;;2.60;;
24873;SDS011;12945;42.648;23.370;2022-09-25T13:38:31;3.88;;;2.42;;
24873;SDS011;12945;42.648;23.370;2022-09-25T13:41:21;4.50;;;2.40;;
24873;SDS011;12945;42.648;23.370;2022-09-25T13:43:46;5.03;;;2.50;;
24873;SDS011;12945;42.648;23.370;2022-09-25T13:48:38;3.70;;;2.17;;
24873;SDS011;12945;42.648;23.370;2022-09-25T13:54:01;5.63;;;2.70;;
24873;SDS011;12945;42.648;23.370;2022-09-25T13:56:48;6.13;;;2.40;;
24873;SDS011;12945;42.648;23.370;2022-09-25T14:01:42;3.17;;;2.28;;
24873;SDS011;12945;42.648;23.370;2022-09-25T14:06:39;6.03;;;2.60;;
24873;SDS011;12945;42.648;23.370;2022-09-25T14:09:13;4.35;;;2.67;;
24873;SDS011;12945;42.648;23.370;2022-09-25T14:11:40;5.25;;;2.33;;
24873;SDS011;12945;42.648;23.370;2022-09-25T14:14:07;5.95;;;2.13;;
24873;SDS011;12945;42.648;23.370;2022-09-25T14:16:37;4.43;;;2.53;;
24873;SDS011;12945;42.648;23.370;2022-09-25T14:19:04;6.53;;;2.33;;
24873;SDS011;12945;42.648;23.370;2022-09-25T14:21:32;5.30;;;2.35;;
24873;SDS011;12945;42.648;23.370;2022-09-25T14:24:11;4.43;;;2.35;;
24873;SDS011;12945;42.648;23.370;2022-09-25T14:26:43;4.65;;;2.22;;
24873;SDS011;12945;42.648;23.370;2022-09-25T14:29:16;2.75;;;2.25;;
24873;SDS011;12945;42.648;23.370;2022-09-25T14:31:44;5.03;;;2.50;;
24873;SDS011;12945;42.648;23.370;2022-09-25T14:39:27;7.03;;;2.40;;
24873;SDS011;12945;42.648;23.370;2022-09-25T14:41:57;3.78;;;2.33;;
24873;SDS011;12945;42.648;23.370;2022-09-25T14:47:13;2.85;;;2.10;;
24873;SDS011;12945;42.648;23.370;2022-09-25T14:49:42;5.43;;;2.47;;
24873;SDS011;12945;42.648;23.370;2022-09-25T14:52:10;6.80;;;2.47;;
24873;SDS011;12945;42.648;23.370;2022-09-25T14:54:39;2.75;;;2.20;;
24873;SDS011;12945;42.648;23.370;2022-09-25T14:57:05;3.22;;;2.25;;
24873;SDS011;12945;42.648;23.370;2022-09-25T14:59:42;3.45;;;2.10;;
24873;SDS011;12945;42.648;23.370;2022-09-25T15:02:27;4.88;;;2.63;;
24873;SDS011;12945;42.648;23.370;2022-09-25T15:04:56;3.85;;;2.88;;
24873;SDS011;12945;42.648;23.370;2022-09-25T15:07:22;6.05;;;2.40;;
24873;SDS011;12945;42.648;23.370;2022-09-25T15:09:48;4.47;;;2.08;;
24873;SDS011;12945;42.648;23.370;2022-09-25T15:12:28;4.55;;;2.75;;
24873;SDS011;12945;42.648;23.370;2022-09-25T15:17:22;6.13;;;2.30;;
24873;SDS011;12945;42.648;23.370;2022-09-25T15:19:47;2.30;;;1.88;;
24873;SDS011;12945;42.648;23.370;2022-09-25T15:22:20;5.45;;;2.40;;
24873;SDS011;12945;42.648;23.370;2022-09-25T15:24:48;4.30;;;2.00;;
24873;SDS011;12945;42.648;23.370;2022-09-25T15:27:15;4.38;;;2.10;;
24873;SDS011;12945;42.648;23.370;2022-09-25T15:29:42;7.57;;;2.47;;
24873;SDS011;12945;42.648;23.370;2022-09-25T15:32:19;3.53;;;2.17;;
24873;SDS011;12945;42.648;23.370;2022-09-25T15:34:45;5.40;;;2.30;;
24873;SDS011;12945;42.648;23.370;2022-09-25T15:37:15;5.88;;;2.63;;
24873;SDS011;12945;42.648;23.370;2022-09-25T15:39:42;3.47;;;2.22;;
24873;SDS011;12945;42.648;23.370;2022-09-25T15:42:09;4.35;;;2.65;;
24873;SDS011;12945;42.648;23.370;2022-09-25T15:44:35;2.83;;;1.88;;
24873;SDS011;12945;42.648;23.370;2022-09-25T15:47:00;3.45;;;1.98;;
24873;SDS011;12945;42.648;23.370;2022-09-25T15:49:37;7.07;;;2.35;;
24873;SDS011;12945;42.648;23.370;2022-09-25T15:55:01;5.28;;;2.10;;
24873;SDS011;12945;42.648;23.370;2022-09-25T15:57:27;2.50;;;1.73;;
24873;SDS011;12945;42.648;23.370;2022-09-25T15:59:53;7.60;;;2.67;;
24873;SDS011;12945;42.648;23.370;2022-09-25T16:02:38;5.15;;;2.35;;
24873;SDS011;12945;42.648;23.370;2022-09-25T16:05:31;5.75;;;2.35;;
24873;SDS011;12945;42.648;23.370;2022-09-25T16:10:41;5.22;;;2.47;;
24873;SDS011;12945;42.648;23.370;2022-09-25T16:13:20;5.82;;;2.50;;
24873;SDS011;12945;42.648;23.370;2022-09-25T16:15:48;5.10;;;2.42;;
24873;SDS011;12945;42.648;23.370;2022-09-25T16:20:45;13.45;;;6.75;;
24873;SDS011;12945;42.648;23.370;2022-09-25T16:23:21;7.25;;;3.55;;
24873;SDS011;12945;42.648;23.370;2022-09-25T16:25:48;9.73;;;5.55;;
24873;SDS011;12945;42.648;23.370;2022-09-25T16:28:21;9.70;;;4.75;;
24873;SDS011;12945;42.648;23.370;2022-09-25T16:30:59;7.65;;;4.07;;
24873;SDS011;12945;42.648;23.370;2022-09-25T16:33:28;11.57;;;4.60;;
24873;SDS011;12945;42.648;23.370;2022-09-25T16:36:00;12.63;;;5.25;;
24873;SDS011;12945;42.648;23.370;2022-09-25T16:38:30;8.55;;;4.75;;
24873;SDS011;12945;42.648;23.370;2022-09-25T16:41:02;8.15;;;4.95;;
24873;SDS011;12945;42.648;23.370;2022-09-25T16:43:29;12.57;;;5.10;;
24873;SDS011;12945;42.648;23.370;2022-09-25T16:45:56;10.30;;;5.75;;
24873;SDS011;12945;42.648;23.370;2022-09-25T16:48:26;12.82;;;4.57;;
24873;SDS011;12945;42.648;23.370;2022-09-25T16:50:52;11.60;;;4.38;;
24873;SDS011;12945;42.648;23.370;2022-09-25T16:53:19;10.07;;;4.50;;
24873;SDS011;12945;42.648;23.370;2022-09-25T16:55:45;10.20;;;4.00;;
24873;SDS011;12945;42.648;23.370;2022-09-25T16:58:13;11.40;;;3.58;;
24873;SDS011;12945;42.648;23.370;2022-09-25T17:00:38;7.38;;;3.17;;
24873;SDS011;12945;42.648;23.370;2022-09-25T17:03:03;12.38;;;4.90;;
24873;SDS011;12945;42.648;23.370;2022-09-25T17:05:29;15.15;;;5.15;;
24873;SDS011;12945;42.648;23.370;2022-09-25T17:07:56;15.38;;;6.40;;
24873;SDS011;12945;42.648;23.370;2022-09-25T17:10:22;13.18;;;5.90;;
24873;SDS011;12945;42.648;23.370;2022-09-25T17:12:49;8.45;;;4.75;;